Time;durP1;ratioP1;P1;durP2;ratioP2;P2;SDS_P1;SDS_P2;PMS_P1;PMS_P2;Temp;Humidity;BMP_temperature;BMP_pressure;BME280_temperature;BME280_humidity;BME280_pressure;Samples;Min_cycle;Max_cycle;Signal;HPM_P1;HPM_P2
2023/11/27 00:00:42;;;;;;;8.88;5.80;;;;;;;6.55;100.00;100862.41;5248803;28;20486;-78
2023/11/27 00:03:15;;;;;;;9.10;5.80;;;;;;;6.51;100.00;100856.56;5252231;28;20611;-76
2023/11/27 00:05:47;;;;;;;11.15;6.10;;;;;;;6.55;100.00;100855.44;5254007;28;20040;-80
2023/11/27 00:08:19;;;;;;;10.05;5.55;;;;;;;6.58;100.00;100855.22;5253118;28;20037;-74
2023/11/27 00:10:51;;;;;;;11.30;6.20;;;;;;;6.54;100.00;100835.53;5250464;28;20037;-76
2023/11/27 00:13:23;;;;;;;9.45;6.00;;;;;;;6.61;100.00;100843.78;5250628;28;20063;-80
2023/11/27 00:15:55;;;;;;;11.55;6.30;;;;;;;6.61;100.00;100833.34;5251653;28;20025;-75
2023/11/27 00:18:27;;;;;;;9.75;5.82;;;;;;;6.56;100.00;100828.47;5248674;28;20029;-77
2023/11/27 00:20:59;;;;;;;13.13;6.60;;;;;;;6.68;100.00;100833.78;5249461;28;20413;-75
2023/11/27 00:23:31;;;;;;;9.13;6.13;;;;;;;6.60;100.00;100817.84;5249697;28;20446;-76
2023/11/27 00:26:03;;;;;;;10.07;6.68;;;;;;;6.60;100.00;100816.09;5248740;28;20033;-77
2023/11/27 00:28:34;;;;;;;8.48;5.53;;;;;;;6.60;100.00;100810.88;5249809;28;20037;-83
2023/11/27 00:31:09;;;;;;;11.05;5.70;;;;;;;6.57;100.00;100795.47;5249284;28;20393;-74
2023/11/27 00:33:41;;;;;;;10.55;5.88;;;;;;;6.58;100.00;100804.94;5251294;28;20037;-74
2023/11/27 00:36:13;;;;;;;10.50;5.40;;;;;;;6.47;100.00;100768.41;5248995;28;20329;-78
2023/11/27 00:38:45;;;;;;;8.07;5.53;;;;;;;6.55;100.00;100777.38;5239925;28;20618;-77
2023/11/27 00:41:17;;;;;;;13.50;5.93;;;;;;;6.62;100.00;100784.72;5231996;28;20040;-77
2023/11/27 00:43:50;;;;;;;8.95;6.07;;;;;;;6.64;100.00;100769.84;5249339;28;20044;-76
2023/11/27 00:46:22;;;;;;;12.75;6.05;;;;;;;6.67;100.00;100772.25;5250702;28;20496;-74
2023/11/27 00:48:54;;;;;;;8.75;5.57;;;;;;;6.62;100.00;100771.72;5248330;28;20036;-76
2023/11/27 00:51:26;;;;;;;10.15;5.82;;;;;;;6.61;100.00;100764.84;5250751;28;20033;-76
2023/11/27 00:53:58;;;;;;;8.88;5.85;;;;;;;6.60;100.00;100763.19;5248245;28;20029;-75
2023/11/27 00:56:30;;;;;;;9.20;5.65;;;;;;;6.56;100.00;100755.59;5248468;28;20025;-76
2023/11/27 00:59:02;;;;;;;12.20;6.00;;;;;;;6.57;100.00;100751.22;5250606;28;20029;-75
2023/11/27 01:01:33;;;;;;;9.93;5.47;;;;;;;6.57;100.00;100751.22;5248864;28;20033;-75
2023/11/27 01:04:05;;;;;;;11.57;5.88;;;;;;;6.55;100.00;100746.13;5247554;28;20047;-75
2023/11/27 01:06:38;;;;;;;10.35;5.95;;;;;;;6.55;100.00;100733.13;5248998;28;20072;-75
2023/11/27 01:09:11;;;;;;;8.32;5.47;;;;;;;6.54;100.00;100728.00;5248472;28;20040;-75
2023/11/27 01:11:43;;;;;;;;;;;;;;;7.22;100.00;100731.84;5253009;28;20457;-75
2023/11/27 01:14:15;;;;;;;9.05;5.68;;;;;;;6.64;100.00;100726.44;5253178;28;19923;-75
2023/11/27 01:16:47;;;;;;;12.82;5.47;;;;;;;6.58;100.00;100725.06;5253031;28;20032;-75
2023/11/27 01:19:19;;;;;;;10.95;5.60;;;;;;;6.54;100.00;100717.59;5253794;28;20032;-76
2023/11/27 01:21:52;;;;;;;9.35;5.55;;;;;;;6.53;100.00;100714.16;5253325;28;20033;-75
2023/11/27 01:24:24;;;;;;;9.20;5.38;;;;;;;6.58;100.00;100711.22;5255838;28;20056;-75
2023/11/27 01:26:56;;;;;;;9.55;5.90;;;;;;;6.55;100.00;100696.69;5253584;28;20043;-75
2023/11/27 01:29:28;;;;;;;9.55;5.75;;;;;;;6.51;100.00;100687.38;5254431;28;20032;-75
2023/11/27 01:32:00;;;;;;;10.50;6.15;;;;;;;6.57;100.00;100692.19;5251211;28;20389;-77
2023/11/27 01:34:32;;;;;;;10.77;5.75;;;;;;;6.54;100.00;100689.78;5253482;28;20196;-75
2023/11/27 01:37:04;;;;;;;10.85;6.43;;;;;;;6.54;100.00;100689.78;5252172;28;20037;-75
2023/11/27 01:39:36;;;;;;;10.13;5.50;;;;;;;6.42;100.00;100666.41;5254305;28;20033;-77
2023/11/27 01:42:09;;;;;;;8.50;5.28;;;;;;;6.54;100.00;100688.97;5252171;28;20044;-75
2023/11/27 01:44:41;;;;;;;8.05;5.15;;;;;;;6.51;100.00;100678.75;5254207;28;20029;-74
2023/11/27 01:47:14;;;;;;;11.38;6.47;;;;;;;6.51;100.00;100676.97;5251837;28;20488;-75
2023/11/27 01:49:46;;;;;;;9.57;5.88;;;;;;;6.53;100.00;100675.13;5252803;28;20029;-74
2023/11/27 01:52:18;;;;;;;10.48;5.97;;;;;;;6.47;100.00;100670.34;5253250;28;20424;-75
2023/11/27 01:54:50;;;;;;;11.25;5.70;;;;;;;6.51;100.00;100665.75;5251296;28;20039;-75
2023/11/27 01:57:24;;;;;;;9.00;5.95;;;;;;;6.48;100.00;100653.81;5252231;28;20056;-74
2023/11/27 01:59:56;;;;;;;8.75;5.88;;;;;;;6.44;100.00;100644.56;5252943;28;20394;-75
2023/11/27 02:02:28;;;;;;;9.82;6.72;;;;;;;6.45;100.00;100646.19;5253840;28;20037;-75
2023/11/27 02:05:00;;;;;;;10.50;6.00;;;;;;;6.44;100.00;100628.94;5251071;28;20436;-75
2023/11/27 02:07:32;;;;;;;10.45;6.70;;;;;;;6.42;100.00;100629.97;5253017;28;20504;-75
2023/11/27 02:10:04;;;;;;;9.43;6.47;;;;;;;6.50;100.00;100638.06;5251710;28;20033;-74
2023/11/27 02:12:37;;;;;;;10.55;6.55;;;;;;;6.47;100.00;100633.06;5251954;28;20025;-75
2023/11/27 02:15:09;;;;;;;9.63;6.35;;;;;;;6.50;100.00;100633.69;5253798;28;20033;-75
2023/11/27 02:17:41;;;;;;;7.28;5.78;;;;;;;6.45;100.00;100632.38;5248907;28;20033;-76
2023/11/27 02:20:13;;;;;;;8.63;6.45;;;;;;;6.45;100.00;100628.00;5251852;28;20394;-75
2023/11/27 02:22:45;;;;;;;8.52;6.13;;;;;;;6.50;100.00;100625.06;5250238;28;20381;-75
2023/11/27 02:25:17;;;;;;;11.85;6.20;;;;;;;6.41;100.00;100617.91;5252339;28;20037;-76
2023/11/27 02:27:49;;;;;;;10.45;6.43;;;;;;;6.41;100.00;100613.53;5251616;28;20036;-76
2023/11/27 02:30:21;;;;;;;11.52;7.18;;;;;;;6.40;100.00;100604.03;5253476;28;20523;-75
2023/11/27 02:32:53;;;;;;;8.27;6.15;;;;;;;6.38;100.00;100592.94;5249788;28;20072;-75
2023/11/27 02:35:25;;;;;;;8.05;5.88;;;;;;;6.35;100.00;100585.34;5253582;28;20025;-75
2023/11/27 02:37:57;;;;;;;8.10;5.88;;;;;;;6.30;100.00;100592.66;5250176;28;20119;-75
2023/11/27 02:40:30;;;;;;;9.13;5.60;;;;;;;6.33;100.00;100575.06;5251729;28;20111;-75
2023/11/27 02:43:02;;;;;;;10.80;6.03;;;;;;;6.33;100.00;100563.81;5249034;28;20036;-76
2023/11/27 02:45:33;;;;;;;10.63;6.38;;;;;;;6.28;100.00;100568.50;5250999;28;20040;-75
2023/11/27 02:48:06;;;;;;;11.93;6.75;;;;;;;6.24;100.00;100554.88;5233080;28;20508;-77
2023/11/27 02:50:38;;;;;;;10.85;6.22;;;;;;;6.20;100.00;100547.41;5250767;28;20025;-75
2023/11/27 02:53:10;;;;;;;7.45;5.35;;;;;;;6.20;100.00;100537.00;5250364;28;20043;-75
2023/11/27 02:55:42;;;;;;;10.27;6.32;;;;;;;6.18;100.00;100541.50;5252948;28;20031;-76
2023/11/27 02:58:14;;;;;;;10.77;6.18;;;;;;;6.15;100.00;100534.72;5251350;28;20033;-76
2023/11/27 03:00:46;;;;;;;10.88;5.88;;;;;;;6.19;100.00;100528.38;5250390;28;20412;-76
2023/11/27 03:03:18;;;;;;;9.57;5.93;;;;;;;6.16;100.00;100514.75;5251378;28;20405;-78
2023/11/27 03:05:50;;;;;;;10.77;6.03;;;;;;;6.20;100.00;100508.38;5250840;28;20037;-76
2023/11/27 03:08:22;;;;;;;9.63;6.53;;;;;;;6.23;100.00;100510.78;5250875;28;20040;-76
2023/11/27 03:10:54;;;;;;;9.15;5.93;;;;;;;6.23;100.00;100496.00;5249659;28;20044;-76
2023/11/27 03:13:26;;;;;;;7.95;6.22;;;;;;;6.15;100.00;100482.72;5250975;28;20032;-75
2023/11/27 03:15:58;;;;;;;12.75;6.88;;;;;;;6.15;100.00;100469.72;5252385;28;20043;-76
2023/11/27 03:18:30;;;;;;;8.77;6.65;;;;;;;6.17;100.00;100472.19;5251902;28;20035;-76
2023/11/27 03:21:04;;;;;;;9.75;7.07;;;;;;;6.19;100.00;100465.13;5247280;28;20059;-77
2023/11/27 03:23:36;;;;;;;9.50;6.55;;;;;;;6.08;100.00;100451.13;5251307;28;20043;-77
2023/11/27 03:26:07;;;;;;;11.02;6.38;;;;;;;6.09;100.00;100447.56;5251385;28;20033;-76
2023/11/27 03:28:39;;;;;;;13.15;6.88;;;;;;;6.12;100.00;100440.50;5251814;28;20032;-76
2023/11/27 03:31:11;;;;;;;9.98;5.97;;;;;;;6.14;100.00;100438.59;5250637;28;20486;-77
2023/11/27 03:33:43;;;;;;;8.60;6.07;;;;;;;6.15;100.00;100429.88;5250300;28;20410;-76
2023/11/27 03:36:15;;;;;;;8.85;5.80;;;;;;;6.13;100.00;100416.13;5251740;28;20090;-76
2023/11/27 03:38:47;;;;;;;7.28;5.28;;;;;;;6.14;100.00;100413.44;5251045;28;20035;-76
2023/11/27 03:41:23;;;;;;;7.60;5.53;;;;;;;6.12;100.00;100414.50;5248165;28;20039;-76
2023/11/27 03:43:54;;;;;;;10.32;5.57;;;;;;;6.09;100.00;100398.16;5249152;28;20029;-78
2023/11/27 03:46:26;;;;;;;7.60;5.55;;;;;;;6.04;100.00;100389.88;5251395;28;20033;-77
2023/11/27 03:48:58;;;;;;;9.07;5.93;;;;;;;6.05;100.00;100394.13;5251597;28;20529;-76
2023/11/27 03:51:31;;;;;;;10.25;5.30;;;;;;;6.04;100.00;100371.66;5250458;28;20474;-76
2023/11/27 03:54:03;;;;;;;7.60;5.30;;;;;;;6.05;100.00;100373.31;5252624;28;20122;-76
2023/11/27 03:56:35;;;;;;;6.60;4.65;;;;;;;6.02;100.00;100365.75;5251358;28;20025;-76
2023/11/27 03:59:08;;;;;;;6.47;5.10;;;;;;;5.92;100.00;100348.31;5248848;28;20033;-76
2023/11/27 04:01:39;;;;;;;7.07;4.85;;;;;;;5.89;100.00;100325.13;5250431;28;20463;-76
2023/11/27 04:04:14;;;;;;;9.38;5.20;;;;;;;5.93;100.00;100327.41;5250914;28;20039;-77
2023/11/27 04:06:46;;;;;;;7.57;5.10;;;;;;;5.83;100.00;100303.84;5249714;28;20029;-76
2023/11/27 04:09:20;;;;;;;7.00;4.78;;;;;;;5.88;100.00;100315.69;5251779;28;20031;-76
2023/11/27 04:11:53;;;;;;;6.90;4.57;;;;;;;5.93;100.00;100308.41;5250353;28;20033;-76
2023/11/27 04:14:24;;;;;;;6.57;4.53;;;;;;;5.90;100.00;100299.00;5249872;28;20489;-77
2023/11/27 04:16:56;;;;;;;6.18;4.40;;;;;;;5.86;100.00;100295.81;5251160;28;20036;-78
2023/11/27 04:19:28;;;;;;;8.05;4.50;;;;;;;5.87;100.00;100286.22;5251102;28;20044;-76
2023/11/27 04:22:00;;;;;;;6.63;3.90;;;;;;;5.90;100.00;100282.59;5250161;28;20039;-76
2023/11/27 04:24:32;;;;;;;6.88;4.05;;;;;;;5.92;100.00;100276.38;5251569;28;20053;-75
2023/11/27 04:27:04;;;;;;;8.18;4.60;;;;;;;5.93;100.00;100283.22;5249922;28;20347;-76
2023/11/27 04:29:36;;;;;;;6.97;4.07;;;;;;;5.91;100.00;100277.28;5250935;28;20025;-76
2023/11/27 04:32:08;;;;;;;6.07;4.07;;;;;;;5.86;100.00;100274.19;5250189;28;20549;-77
2023/11/27 04:34:40;;;;;;;7.50;4.38;;;;;;;5.85;100.00;100262.13;5250624;28;20551;-76
2023/11/27 04:37:14;;;;;;;6.18;3.72;;;;;;;5.83;100.00;100266.59;5250078;28;20036;-76
2023/11/27 04:39:46;;;;;;;7.97;4.13;;;;;;;5.89;100.00;100255.75;5250812;28;20035;-76
2023/11/27 04:42:18;;;;;;;5.32;3.45;;;;;;;5.91;100.00;100240.91;5248011;28;20554;-76
2023/11/27 04:44:51;;;;;;;5.77;3.80;;;;;;;5.93;100.00;100241.63;5248724;28;20047;-76
2023/11/27 04:47:23;;;;;;;4.68;3.42;;;;;;;5.91;100.00;100220.09;5250106;28;20116;-76
2023/11/27 04:49:54;;;;;;;5.38;3.33;;;;;;;5.88;100.00;100217.72;5249561;28;20041;-77
2023/11/27 04:52:26;;;;;;;4.18;3.10;;;;;;;5.92;100.00;100226.13;5248954;28;20119;-76
2023/11/27 04:54:58;;;;;;;5.85;2.95;;;;;;;5.94;100.00;100214.66;5250137;28;20044;-76
2023/11/27 04:57:31;;;;;;;4.35;3.25;;;;;;;5.92;100.00;100208.78;5251272;28;20033;-76
2023/11/27 05:00:04;;;;;;;4.65;3.50;;;;;;;5.97;100.00;100200.63;5249599;28;20024;-75
2023/11/27 05:02:35;;;;;;;4.80;3.08;;;;;;;5.84;100.00;100165.13;5248773;28;20043;-78
2023/11/27 05:05:07;;;;;;;6.10;2.88;;;;;;;5.98;100.00;100189.28;5249059;28;20029;-76
2023/11/27 05:07:39;;;;;;;5.75;3.20;;;;;;;5.82;100.00;100169.59;5250079;28;20029;-76
2023/11/27 05:10:11;;;;;;;4.15;3.00;;;;;;;5.97;100.00;100172.84;5249337;28;20032;-76
2023/11/27 05:12:45;;;;;;;4.45;2.85;;;;;;;5.89;100.00;100156.16;5249199;28;20033;-76
2023/11/27 05:15:17;;;;;;;;;;;;;;;6.64;100.00;100171.16;5250119;28;20021;-79
2023/11/27 05:17:51;;;;;;;5.43;2.78;;;;;;;6.05;100.00;100159.25;5249370;28;19917;-80
2023/11/27 05:20:22;;;;;;;5.03;2.80;;;;;;;6.03;100.00;100156.78;5248437;28;20044;-78
2023/11/27 05:22:54;;;;;;;6.80;3.10;;;;;;;5.91;100.00;100142.09;5251725;28;20414;-77
2023/11/27 05:25:26;;;;;;;5.03;2.85;;;;;;;6.01;100.00;100158.66;5249419;28;20037;-76
2023/11/27 05:27:58;;;;;;;4.22;3.20;;;;;;;5.91;100.00;100136.91;5249720;28;20033;-76
2023/11/27 05:30:30;;;;;;;7.03;3.22;;;;;;;6.05;100.00;100165.28;5252097;28;20520;-79
2023/11/27 05:33:02;;;;;;;5.10;3.28;;;;;;;6.04;100.00;100148.03;5249322;28;20087;-76
2023/11/27 05:35:34;;;;;;;5.43;3.55;;;;;;;6.07;100.00;100142.59;5251783;28;20040;-76
2023/11/27 05:38:06;;;;;;;5.30;3.10;;;;;;;6.07;100.00;100142.59;5250120;28;20043;-76
2023/11/27 05:40:37;;;;;;;4.20;2.90;;;;;;;6.07;100.00;100136.56;5251315;28;20047;-76
2023/11/27 05:43:11;;;;;;;5.10;2.70;;;;;;;6.00;100.00;100120.63;5248065;28;20043;-77
2023/11/27 05:45:43;;;;;;;7.85;3.70;;;;;;;6.02;100.00;100107.47;5250968;28;20474;-76
2023/11/27 05:48:16;;;;;;;5.78;3.55;;;;;;;6.09;100.00;100114.69;5250718;28;20037;-78
2023/11/27 05:50:48;;;;;;;4.20;3.13;;;;;;;6.11;100.00;100106.78;5250268;28;20474;-76
2023/11/27 05:53:20;;;;;;;4.80;3.35;;;;;;;6.03;100.00;100088.34;5249377;28;20528;-76
2023/11/27 05:55:52;;;;;;;7.15;3.22;;;;;;;6.00;100.00;100078.19;5251969;28;20021;-78
2023/11/27 05:58:24;;;;;;;5.63;3.05;;;;;;;6.02;100.00;100079.72;5253397;28;20037;-76
2023/11/27 06:00:57;;;;;;;4.63;2.95;;;;;;;6.02;100.00;100074.53;5253679;28;20044;-78
2023/11/27 06:03:28;;;;;;;4.40;2.90;;;;;;;6.02;100.00;100071.94;5253264;28;20389;-76
2023/11/27 06:06:00;;;;;;;5.35;3.10;;;;;;;5.96;100.00;100058.56;5235420;28;20045;-78
2023/11/27 06:08:32;;;;;;;5.15;3.30;;;;;;;6.02;100.00;100071.94;5252388;28;20032;-78
2023/11/27 06:11:04;;;;;;;5.10;2.80;;;;;;;5.97;100.00;100065.41;5253513;28;20029;-78
2023/11/27 06:13:38;;;;;;;5.45;3.17;;;;;;;5.97;100.00;100062.81;5252617;28;20059;-77
2023/11/27 06:16:10;;;;;;;3.63;2.90;;;;;;;6.03;100.00;100062.34;5250569;28;20048;-76
2023/11/27 06:18:41;;;;;;;4.38;3.10;;;;;;;5.97;100.00;100053.25;5235578;28;20049;-76
2023/11/27 06:21:14;;;;;;;3.72;3.13;;;;;;;6.03;100.00;100063.19;5236315;28;20599;-76
2023/11/27 06:23:46;;;;;;;4.57;3.17;;;;;;;6.03;100.00;100052.78;5254519;28;20047;-76
2023/11/27 06:26:18;;;;;;;7.30;3.53;;;;;;;6.03;100.00;100052.78;5255644;28;20104;-76
2023/11/27 06:28:50;;;;;;;5.00;3.17;;;;;;;6.02;100.00;100029.47;5236617;28;20041;-76
2023/11/27 06:31:22;;;;;;;4.43;3.05;;;;;;;5.84;100.00;100016.97;5253499;28;20483;-77
2023/11/27 06:33:53;;;;;;;3.70;3.17;;;;;;;6.02;100.00;100027.72;5252973;28;20524;-77
2023/11/27 06:36:26;;;;;;;6.30;3.60;;;;;;;6.04;100.00;100025.81;5254795;28;20472;-78
2023/11/27 06:38:57;;;;;;;5.20;3.10;;;;;;;6.01;100.00;100020.84;5253180;28;20735;-76
2023/11/27 06:41:30;;;;;;;3.28;2.75;;;;;;;6.02;100.00;100014.72;5255156;28;20079;-77
2023/11/27 06:44:02;;;;;;;5.03;3.25;;;;;;;6.04;100.00;100010.22;5269613;22;20497;-77
2023/11/27 06:46:36;;;;;;;4.80;3.78;;;;;;;6.02;100.00;100000.88;5280214;28;20032;-77
2023/11/27 06:49:09;;;;;;;5.25;3.15;;;;;;;6.05;100.00;99992.84;5289215;28;20034;-77
2023/11/27 06:51:42;;;;;;;4.60;3.45;;;;;;;6.07;100.00;99983.16;5279618;28;20413;-77
2023/11/27 06:54:13;;;;;;;3.63;3.33;;;;;;;6.06;100.00;99977.13;5284854;28;20044;-77
2023/11/27 06:56:45;;;;;;;4.35;2.92;;;;;;;6.03;100.00;99972.16;5281950;28;20035;-77
2023/11/27 06:59:18;;;;;;;4.68;3.35;;;;;;;6.07;100.00;99962.34;5282985;28;20111;-77
2023/11/27 07:01:50;;;;;;;4.13;2.97;;;;;;;6.08;100.00;99961.41;5284386;28;20058;-77
2023/11/27 07:04:22;;;;;;;5.15;3.40;;;;;;;6.06;100.00;99943.34;5288586;28;20404;-77
2023/11/27 07:06:54;;;;;;;5.65;2.95;;;;;;;6.02;100.00;99933.28;5281347;28;20150;-77
2023/11/27 07:09:27;;;;;;;4.88;3.42;;;;;;;6.05;100.00;99940.84;5284343;28;20116;-77
2023/11/27 07:11:59;;;;;;;3.67;3.00;;;;;;;6.05;100.00;99930.44;5280735;28;20036;-77
2023/11/27 07:14:31;;;;;;;6.95;3.40;;;;;;;6.02;100.00;99936.72;5289118;28;20051;-77
2023/11/27 07:17:03;;;;;;;5.13;3.47;;;;;;;6.11;100.00;99935.16;5284586;28;20397;-77
2023/11/27 07:19:35;;;;;;;4.32;3.15;;;;;;;6.04;100.00;99926.19;5280158;28;20682;-78
2023/11/27 07:22:07;;;;;;;5.03;3.47;;;;;;;6.09;100.00;99924.03;5286882;28;20040;-77
2023/11/27 07:24:39;;;;;;;4.18;3.33;;;;;;;6.09;100.00;99922.25;5284335;28;20405;-77
2023/11/27 07:27:11;;;;;;;5.57;3.60;;;;;;;6.05;100.00;99914.84;5279223;28;20029;-77
2023/11/27 07:29:43;;;;;;;5.75;4.00;;;;;;;6.13;100.00;99927.22;5282166;28;20636;-77
2023/11/27 07:32:15;;;;;;;4.28;3.75;;;;;;;6.17;100.00;99920.81;5280836;28;20442;-77
2023/11/27 07:34:47;;;;;;;3.63;3.20;;;;;;;6.19;100.00;99914.56;5270803;28;20031;-77
2023/11/27 07:37:19;;;;;;;3.85;3.45;;;;;;;6.21;100.00;99902.25;5279795;28;20036;-78
2023/11/27 07:39:51;;;;;;;6.35;4.00;;;;;;;6.22;100.00;99900.47;5283031;28;20033;-78
2023/11/27 07:42:23;;;;;;;3.92;3.50;;;;;;;6.18;100.00;99889.50;5285136;28;20037;-78
2023/11/27 07:44:55;;;;;;;6.22;4.32;;;;;;;6.28;100.00;99894.75;5280576;28;20044;-78
2023/11/27 07:47:27;;;;;;;4.40;3.80;;;;;;;6.26;100.00;99891.47;5288110;28;20036;-78
2023/11/27 07:49:59;;;;;;;5.05;3.63;;;;;;;6.27;100.00;99877.50;5286218;28;20024;-77
2023/11/27 07:52:31;;;;;;;4.60;3.40;;;;;;;6.32;100.00;99881.38;5280418;28;20043;-78
2023/11/27 07:55:04;;;;;;;5.20;3.75;;;;;;;6.32;100.00;99878.75;5281109;28;20028;-78
2023/11/27 07:57:36;;;;;;;4.80;3.38;;;;;;;6.32;100.00;99870.97;5281970;28;20102;-78
2023/11/27 08:00:11;;;;;;;4.28;3.50;;;;;;;6.24;100.00;99851.75;5280397;28;20472;-78
2023/11/27 08:02:43;;;;;;;4.13;3.65;;;;;;;6.34;100.00;99861.28;5283553;28;20036;-78
2023/11/27 08:05:17;;;;;;;5.00;3.75;;;;;;;6.38;100.00;99855.81;5284632;28;20027;-78
2023/11/27 08:07:50;;;;;;;4.30;3.22;;;;;;;6.38;100.00;99846.22;5276164;28;21080;-78
2023/11/27 08:10:21;;;;;;;4.13;3.15;;;;;;;6.42;100.00;99842.41;5281158;28;20063;-78
2023/11/27 08:12:53;;;;;;;3.95;3.17;;;;;;;6.45;100.00;99833.53;5281174;28;20029;-78
2023/11/27 08:15:25;;;;;;;4.35;3.17;;;;;;;6.43;100.00;99828.44;5287550;28;20040;-78
2023/11/27 08:18:00;;;;;;;3.72;2.95;;;;;;;6.43;100.00;99825.03;5277941;28;20080;-78
2023/11/27 08:20:32;;;;;;;3.42;2.85;;;;;;;6.48;100.00;99820.28;5281893;28;20035;-78
2023/11/27 08:23:04;;;;;;;6.00;3.10;;;;;;;6.51;100.00;99833.84;5277764;28;20567;-78
2023/11/27 08:25:39;;;;;;;3.25;2.80;;;;;;;6.53;100.00;99820.72;5280534;28;20137;-78
2023/11/27 08:28:11;;;;;;;4.03;3.10;;;;;;;6.53;100.00;99820.72;5280106;28;20036;-78
2023/11/27 08:30:45;;;;;;;3.75;3.05;;;;;;;6.55;100.00;99816.19;5280405;28;20033;-78
2023/11/27 08:33:16;;;;;;;3.53;2.70;;;;;;;6.56;100.00;99810.88;5281503;28;20392;-78
2023/11/27 08:35:48;;;;;;;3.22;2.55;;;;;;;6.62;100.00;99798.28;5278196;28;20033;-78
2023/11/27 08:38:20;;;;;;;3.38;2.47;;;;;;;6.64;100.00;99794.59;5285376;28;20040;-78
2023/11/27 08:40:52;;;;;;;3.15;2.58;;;;;;;6.66;100.00;99789.25;5277674;28;20038;-78
2023/11/27 08:43:25;;;;;;;3.13;2.60;;;;;;;6.72;100.00;99793.94;5276309;28;20480;-78
2023/11/27 08:45:57;;;;;;;3.35;2.60;;;;;;;6.73;100.00;99787.78;5280491;28;20032;-78
2023/11/27 08:48:29;;;;;;;3.47;2.70;;;;;;;6.75;100.00;99783.28;5284728;28;20029;-78
2023/11/27 08:51:01;;;;;;;3.10;2.55;;;;;;;6.74;100.00;99781.59;5278378;28;20111;-78
2023/11/27 08:53:33;;;;;;;3.20;2.47;;;;;;;6.72;100.00;99780.94;5278618;28;20036;-78
2023/11/27 08:56:06;;;;;;;3.53;2.15;;;;;;;6.76;100.00;99784.91;5280230;28;20462;-78
2023/11/27 08:58:38;;;;;;;3.47;2.58;;;;;;;6.82;100.00;99780.03;5280600;28;20039;-78
2023/11/27 09:01:09;;;;;;;3.03;2.17;;;;;;;6.83;100.00;99781.66;5278844;28;20480;-78
2023/11/27 09:03:42;;;;;;;4.30;2.63;;;;;;;6.85;100.00;99773.69;5279491;28;20812;-78
2023/11/27 09:06:14;;;;;;;3.57;2.67;;;;;;;6.90;100.00;99773.31;5285536;28;20036;-77
2023/11/27 09:08:46;;;;;;;2.90;2.15;;;;;;;6.90;100.00;99760.31;5283716;28;20285;-78
2023/11/27 09:11:18;;;;;;;2.55;2.30;;;;;;;6.89;100.00;99753.44;5280374;28;20467;-78
2023/11/27 09:13:50;;;;;;;3.47;2.38;;;;;;;6.94;100.00;99751.28;5280862;28;20457;-78
2023/11/27 09:16:22;;;;;;;5.70;2.30;;;;;;;6.93;100.00;99741.78;5283769;28;21096;-78
2023/11/27 09:18:54;;;;;;;4.05;2.72;;;;;;;6.98;100.00;99742.25;5285987;28;20058;-78
2023/11/27 09:21:25;;;;;;;4.18;2.22;;;;;;;6.99;100.00;99741.28;5284193;28;20028;-78
2023/11/27 09:23:57;;;;;;;3.90;2.58;;;;;;;7.01;100.00;99736.75;5281390;28;20032;-78
2023/11/27 09:26:30;;;;;;;2.58;2.17;;;;;;;6.90;100.00;99732.50;5280476;28;20119;-78
2023/11/27 09:29:02;;;;;;;3.70;2.22;;;;;;;6.99;100.00;99729.06;5277309;28;20048;-78
2023/11/27 09:31:34;;;;;;;2.80;1.98;;;;;;;7.02;100.00;99733.19;5288933;28;20044;-78
2023/11/27 09:34:07;;;;;;;3.22;1.85;;;;;;;7.00;100.00;99725.50;5283638;28;20036;-78
2023/11/27 09:36:39;;;;;;;2.85;2.10;;;;;;;7.06;100.00;99724.97;5284039;28;20055;-78
2023/11/27 09:39:11;;;;;;;2.50;2.00;;;;;;;7.03;100.00;99719.22;5286716;28;20035;-78
2023/11/27 09:41:43;;;;;;;2.50;2.00;;;;;;;6.98;100.00;99706.59;5287323;28;20028;-78
2023/11/27 09:44:17;;;;;;;3.65;1.95;;;;;;;7.06;100.00;99709.34;5284959;28;20050;-78
2023/11/27 09:46:50;;;;;;;2.60;2.00;;;;;;;6.98;100.00;99703.19;5281245;28;20028;-78
2023/11/27 09:49:25;;;;;;;2.65;2.00;;;;;;;7.03;100.00;99701.81;5283056;28;20036;-78
2023/11/27 09:52:01;;;;;;;4.50;2.13;;;;;;;7.03;100.00;99701.81;5282565;28;20024;-78
2023/11/27 09:54:39;;;;;;;2.47;1.70;;;;;;;7.04;100.00;99694.81;5283172;28;20456;-78
2023/11/27 09:57:11;;;;;;;2.72;1.80;;;;;;;7.05;100.00;99680.84;5287914;28;20031;-78
2023/11/27 09:59:43;;;;;;;2.30;1.60;;;;;;;7.03;100.00;99675.75;5284837;28;20571;-78
2023/11/27 10:02:15;;;;;;;2.50;1.65;;;;;;;7.06;100.00;99677.28;5286191;28;20043;-78
2023/11/27 10:04:47;;;;;;;2.03;1.45;;;;;;;7.09;100.00;99663.16;5285022;28;20032;-78
2023/11/27 10:07:21;;;;;;;2.00;1.60;;;;;;;7.08;100.00;99662.31;5283122;28;20072;-78
2023/11/27 10:09:53;;;;;;;1.92;1.45;;;;;;;7.11;100.00;99658.63;5283360;28;20032;-78
2023/11/27 10:12:28;;;;;;;2.35;1.73;;;;;;;7.11;100.00;99663.84;5283395;28;20059;-78
2023/11/27 10:15:02;;;;;;;2.95;1.55;;;;;;;7.12;100.00;99655.88;5283505;28;20044;-78
2023/11/27 10:17:34;;;;;;;1.90;1.50;;;;;;;7.11;100.00;99650.81;5281250;28;20035;-78
2023/11/27 10:20:12;;;;;;;2.60;1.35;;;;;;;7.01;100.00;99643.03;5284425;28;20040;-78
2023/11/27 10:22:44;;;;;;;1.80;1.35;;;;;;;7.07;100.00;99632.84;5282817;28;20020;-78
2023/11/27 10:25:16;;;;;;;2.13;1.42;;;;;;;7.06;100.00;99630.41;5287841;28;20047;-78
2023/11/27 10:27:55;;;;;;;1.80;1.33;;;;;;;7.25;100.00;99630.38;5280990;28;20378;-78
2023/11/27 10:30:31;;;;;;;3.10;1.60;;;;;;;7.14;100.00;99627.94;5282551;28;20439;-78
2023/11/27 10:33:03;;;;;;;1.50;1.10;;;;;;;7.12;100.00;99623.81;5288851;28;20032;-78
2023/11/27 10:35:36;;;;;;;1.80;1.35;;;;;;;7.12;100.00;99616.81;5286133;28;20034;-78
2023/11/27 10:38:17;;;;;;;2.17;1.40;;;;;;;7.24;100.00;99612.31;5283016;28;20028;-78
2023/11/27 10:40:49;;;;;;;2.47;1.35;;;;;;;7.17;100.00;99612.03;5284860;28;20044;-78
2023/11/27 10:43:22;;;;;;;2.00;1.50;;;;;;;7.19;100.00;99604.88;5284879;28;20040;-78
2023/11/27 10:45:55;;;;;;;1.88;1.13;;;;;;;7.23;100.00;99605.44;5284737;28;20048;-77
2023/11/27 10:48:27;;;;;;;1.98;1.52;;;;;;;7.22;100.00;99596.81;5283254;28;20032;-78
2023/11/27 10:51:03;;;;;;;3.42;1.50;;;;;;;7.22;100.00;99593.38;5279004;28;20520;-78
2023/11/27 10:53:35;;;;;;;2.00;1.15;;;;;;;7.23;100.00;99580.19;5288287;28;20040;-78
2023/11/27 10:56:09;;;;;;;3.30;1.17;;;;;;;7.26;100.00;99585.13;5283607;28;20024;-77
2023/11/27 10:58:44;;;;;;;1.67;1.13;;;;;;;7.22;100.00;99577.75;5278464;28;20036;-77
2023/11/27 11:01:19;;;;;;;1.45;0.95;;;;;;;7.21;100.00;99582.13;5284429;28;20039;-77
2023/11/27 11:03:53;;;;;;;2.65;1.25;;;;;;;7.29;100.00;99569.22;5286956;28;20036;-77
2023/11/27 11:06:26;;;;;;;1.98;1.27;;;;;;;7.25;100.00;99567.88;5286532;28;20036;-77
2023/11/27 11:09:01;;;;;;;1.73;1.05;;;;;;;7.27;100.00;99562.50;5284098;28;20385;-77
2023/11/27 11:11:34;;;;;;;2.22;1.20;;;;;;;7.29;100.00;99558.00;5281386;28;20054;-78
2023/11/27 11:14:07;;;;;;;1.73;1.10;;;;;;;7.27;100.00;99555.53;5282874;28;20388;-78
2023/11/27 11:16:44;;;;;;;;;;;;;;;7.86;100.00;99548.34;5286073;28;20024;-78
2023/11/27 11:19:39;;;;;;;1.60;1.27;;;;;;;7.45;100.00;99542.59;5285213;28;19923;-77
2023/11/27 11:22:23;;;;;;;1.77;1.17;;;;;;;7.46;100.00;99538.19;5281004;28;20040;-78
2023/11/27 11:25:13;;;;;;;3.53;1.27;;;;;;;7.48;100.00;99531.88;5281460;28;20036;-77
2023/11/27 11:28:05;;;;;;;2.05;1.42;;;;;;;7.54;100.00;99525.28;5277396;28;20024;-77
2023/11/27 11:30:37;;;;;;;1.80;1.10;;;;;;;7.27;100.00;99518.22;5282836;28;20028;-78
2023/11/27 11:33:17;;;;;;;3.78;1.30;;;;;;;7.31;100.00;99504.78;5286058;28;20028;-78
2023/11/27 11:35:50;;;;;;;2.03;1.08;;;;;;;7.27;100.00;99503.44;5283619;28;20028;-78
2023/11/27 11:38:22;;;;;;;2.70;1.33;;;;;;;7.31;100.00;99511.75;5284394;28;20032;-78
2023/11/27 11:40:56;;;;;;;1.50;0.87;;;;;;;7.39;100.00;99506.69;5285092;28;20466;-78
2023/11/27 11:43:28;;;;;;;1.70;1.10;;;;;;;7.28;100.00;99486.84;5279914;28;20048;-78
2023/11/27 11:46:00;;;;;;;1.70;1.08;;;;;;;7.29;100.00;99487.66;5284408;28;20040;-78
2023/11/27 11:48:36;;;;;;;1.48;1.05;;;;;;;7.46;100.00;99492.13;5279333;28;20579;-77
2023/11/27 11:51:15;;;;;;;2.38;1.05;;;;;;;7.31;100.00;99475.28;5284313;28;20039;-78
2023/11/27 11:53:51;;;;;;;1.55;1.15;;;;;;;7.37;100.00;99486.94;5279173;28;20036;-77